sensor_id;sensor_type;location;lat;lon;timestamp;pressure;altitude;pressure_sealevel;temperature;humidity
55610;BME280;41486;52.502;13.486;2023-11-19T00:00:36;101029.34;;;4.34;100.00
55610;BME280;41486;52.502;13.486;2023-11-19T00:03:04;101013.69;;;4.15;100.00
55610;BME280;41486;52.502;13.486;2023-11-19T00:05:33;101022.06;;;4.22;100.00
55610;BME280;41486;52.502;13.486;2023-11-19T00:08:01;101008.19;;;4.21;100.00
55610;BME280;41486;52.502;13.486;2023-11-19T00:10:29;100999.47;;;4.22;100.00
55610;BME280;41486;52.502;13.486;2023-11-19T00:12:57;100989.75;;;4.26;100.00
55610;BME280;41486;52.502;13.486;2023-11-19T00:15:25;100984.38;;;4.29;100.00
55610;BME280;41486;52.502;13.486;2023-11-19T00:17:54;100975.47;;;4.35;100.00
55610;BME280;41486;52.502;13.486;2023-11-19T00:20:27;100968.22;;;4.22;100.00
55610;BME280;41486;52.502;13.486;2023-11-19T00:22:55;100968.72;;;4.31;100.00
55610;BME280;41486;52.502;13.486;2023-11-19T00:25:24;100962.59;;;4.32;100.00
55610;BME280;41486;52.502;13.486;2023-11-19T00:27:52;100954.50;;;4.38;100.00
55610;BME280;41486;52.502;13.486;2023-11-19T00:30:23;100960.09;;;4.29;100.00
55610;BME280;41486;52.502;13.486;2023-11-19T00:32:51;100956.69;;;4.28;100.00
55610;BME280;41486;52.502;13.486;2023-11-19T00:35:21;100946.50;;;4.22;100.00
55610;BME280;41486;52.502;13.486;2023-11-19T00:37:49;100945.59;;;4.23;100.00
55610;BME280;41486;52.502;13.486;2023-11-19T00:40:18;100940.19;;;4.28;100.00
55610;BME280;41486;52.502;13.486;2023-11-19T00:42:49;100930.66;;;4.26;100.00
55610;BME280;41486;52.502;13.486;2023-11-19T00:45:17;100923.97;;;4.21;100.00
55610;BME280;41486;52.502;13.486;2023-11-19T00:47:45;100921.94;;;4.28;100.00
55610;BME280;41486;52.502;13.486;2023-11-19T00:50:14;100910.59;;;4.29;100.00
55610;BME280;41486;52.502;13.486;2023-11-19T00:52:43;100903.13;;;4.21;100.00
55610;BME280;41486;52.502;13.486;2023-11-19T00:55:11;100890.88;;;4.23;100.00
55610;BME280;41486;52.502;13.486;2023-11-19T00:57:40;100888.69;;;4.33;100.00
55610;BME280;41486;52.502;13.486;2023-11-19T01:00:09;100881.94;;;4.29;100.00
55610;BME280;41486;52.502;13.486;2023-11-19T01:02:45;100874.25;;;4.25;100.00
55610;BME280;41486;52.502;13.486;2023-11-19T01:05:13;100872.59;;;4.24;100.00
55610;BME280;41486;52.502;13.486;2023-11-19T01:07:45;100854.22;;;4.28;100.00
55610;BME280;41486;52.502;13.486;2023-11-19T01:10:33;100843.66;;;4.31;100.00
55610;BME280;41486;52.502;13.486;2023-11-19T01:13:01;100854.69;;;4.36;100.00
55610;BME280;41486;52.502;13.486;2023-11-19T01:15:32;100845.06;;;4.38;100.00
55610;BME280;41486;52.502;13.486;2023-11-19T01:18:00;100819.22;;;4.33;100.00
55610;BME280;41486;52.502;13.486;2023-11-19T01:20:28;100806.31;;;4.30;100.00
55610;BME280;41486;52.502;13.486;2023-11-19T01:22:58;100795.97;;;4.29;100.00
55610;BME280;41486;52.502;13.486;2023-11-19T01:25:27;100790.41;;;4.36;100.00
55610;BME280;41486;52.502;13.486;2023-11-19T01:27:55;100783.34;;;4.38;100.00
55610;BME280;41486;52.502;13.486;2023-11-19T01:30:25;100776.63;;;4.34;100.00
55610;BME280;41486;52.502;13.486;2023-11-19T01:32:53;100782.44;;;4.39;100.00
55610;BME280;41486;52.502;13.486;2023-11-19T01:35:24;100785.59;;;4.46;100.00
55610;BME280;41486;52.502;13.486;2023-11-19T01:37:53;100785.81;;;4.41;100.00
55610;BME280;41486;52.502;13.486;2023-11-19T01:40:23;100772.66;;;4.45;100.00
55610;BME280;41486;52.502;13.486;2023-11-19T01:42:51;100772.00;;;4.39;100.00
55610;BME280;41486;52.502;13.486;2023-11-19T01:45:27;100761.16;;;4.49;100.00
55610;BME280;41486;52.502;13.486;2023-11-19T01:47:57;100756.63;;;4.52;100.00
55610;BME280;41486;52.502;13.486;2023-11-19T01:50:27;100740.91;;;4.54;100.00
55610;BME280;41486;52.502;13.486;2023-11-19T01:52:56;100722.66;;;4.54;100.00
55610;BME280;41486;52.502;13.486;2023-11-19T01:55:27;100716.72;;;4.52;100.00
55610;BME280;41486;52.502;13.486;2023-11-19T01:57:59;100707.03;;;4.54;100.00
55610;BME280;41486;52.502;13.486;2023-11-19T02:00:28;100705.09;;;4.57;100.00
55610;BME280;41486;52.502;13.486;2023-11-19T02:02:56;100697.47;;;4.54;100.00
55610;BME280;41486;52.502;13.486;2023-11-19T02:05:25;100701.81;;;4.54;100.00
55610;BME280;41486;52.502;13.486;2023-11-19T02:07:53;100697.91;;;4.63;100.00
55610;BME280;41486;52.502;13.486;2023-11-19T02:10:21;100687.03;;;4.54;100.00
55610;BME280;41486;52.502;13.486;2023-11-19T02:12:53;100670.16;;;4.62;100.00
55610;BME280;41486;52.502;13.486;2023-11-19T02:15:32;100660.88;;;4.56;100.00
55610;BME280;41486;52.502;13.486;2023-11-19T02:18:18;100623.13;;;4.47;100.00
55610;BME280;41486;52.502;13.486;2023-11-19T02:20:49;100617.97;;;4.46;100.00
55610;BME280;41486;52.502;13.486;2023-11-19T02:23:18;100616.44;;;4.59;100.00
55610;BME280;41486;52.502;13.486;2023-11-19T02:25:54;100612.59;;;4.49;100.00
55610;BME280;41486;52.502;13.486;2023-11-19T02:28:26;100616.22;;;4.46;100.00
55610;BME280;41486;52.502;13.486;2023-11-19T02:30:54;100618.41;;;4.54;100.00
55610;BME280;41486;52.502;13.486;2023-11-19T02:33:23;100601.84;;;4.55;100.00
55610;BME280;41486;52.502;13.486;2023-11-19T02:35:51;100590.53;;;4.56;100.00
55610;BME280;41486;52.502;13.486;2023-11-19T02:38:19;100587.91;;;4.56;100.00
55610;BME280;41486;52.502;13.486;2023-11-19T02:40:48;100595.72;;;4.56;100.00
55610;BME280;41486;52.502;13.486;2023-11-19T02:43:16;100577.94;;;4.64;100.00
55610;BME280;41486;52.502;13.486;2023-11-19T02:45:47;100565.91;;;4.62;100.00
55610;BME280;41486;52.502;13.486;2023-11-19T02:48:15;100560.09;;;4.56;100.00
55610;BME280;41486;52.502;13.486;2023-11-19T02:50:43;100564.38;;;4.57;100.00
55610;BME280;41486;52.502;13.486;2023-11-19T02:53:11;100566.25;;;4.71;100.00
55610;BME280;41486;52.502;13.486;2023-11-19T02:55:40;100565.41;;;4.71;100.00
55610;BME280;41486;52.502;13.486;2023-11-19T02:58:14;100543.81;;;4.69;100.00
55610;BME280;41486;52.502;13.486;2023-11-19T03:00:51;100521.00;;;4.72;100.00
55610;BME280;41486;52.502;13.486;2023-11-19T03:03:24;100505.78;;;4.65;100.00
55610;BME280;41486;52.502;13.486;2023-11-19T03:05:57;100508.22;;;4.68;100.00
55610;BME280;41486;52.502;13.486;2023-11-19T03:08:25;100503.69;;;4.71;100.00
55610;BME280;41486;52.502;13.486;2023-11-19T03:10:53;100501.50;;;4.80;100.00
55610;BME280;41486;52.502;13.486;2023-11-19T03:13:21;100499.84;;;4.95;100.00
55610;BME280;41486;52.502;13.486;2023-11-19T03:15:49;100495.53;;;4.94;100.00
55610;BME280;41486;52.502;13.486;2023-11-19T03:18:19;100493.03;;;4.92;100.00
55610;BME280;41486;52.502;13.486;2023-11-19T03:20:48;100503.19;;;4.81;100.00
55610;BME280;41486;52.502;13.486;2023-11-19T03:23:16;100507.31;;;4.85;100.00
55610;BME280;41486;52.502;13.486;2023-11-19T03:25:44;100507.81;;;4.92;100.00
55610;BME280;41486;52.502;13.486;2023-11-19T03:28:12;100503.63;;;4.89;100.00
55610;BME280;41486;52.502;13.486;2023-11-19T03:30:40;100510.06;;;4.98;100.00
55610;BME280;41486;52.502;13.486;2023-11-19T03:33:08;100508.59;;;4.94;100.00
55610;BME280;41486;52.502;13.486;2023-11-19T03:35:38;100512.19;;;4.91;100.00
55610;BME280;41486;52.502;13.486;2023-11-19T03:38:07;100497.66;;;5.03;100.00
55610;BME280;41486;52.502;13.486;2023-11-19T03:40:35;100491.41;;;5.05;100.00
55610;BME280;41486;52.502;13.486;2023-11-19T03:43:04;100473.66;;;4.96;100.00
55610;BME280;41486;52.502;13.486;2023-11-19T03:45:32;100449.72;;;4.73;100.00
55610;BME280;41486;52.502;13.486;2023-11-19T03:48:01;100438.72;;;4.68;100.00
55610;BME280;41486;52.502;13.486;2023-11-19T03:50:29;100438.78;;;4.51;100.00
55610;BME280;41486;52.502;13.486;2023-11-19T03:52:58;100437.78;;;4.53;100.00
55610;BME280;41486;52.502;13.486;2023-11-19T03:55:26;100440.72;;;4.47;100.00
55610;BME280;41486;52.502;13.486;2023-11-19T03:57:54;100444.16;;;4.48;100.00
55610;BME280;41486;52.502;13.486;2023-11-19T04:00:22;100440.19;;;4.40;100.00
55610;BME280;41486;52.502;13.486;2023-11-19T04:02:50;100421.81;;;4.44;100.00
55610;BME280;41486;52.502;13.486;2023-11-19T04:05:19;100409.59;;;4.44;100.00
55610;BME280;41486;52.502;13.486;2023-11-19T04:07:47;100389.69;;;4.43;100.00
55610;BME280;41486;52.502;13.486;2023-11-19T04:10:16;100379.59;;;4.37;100.00
55610;BME280;41486;52.502;13.486;2023-11-19T04:12:45;100372.84;;;4.33;100.00
55610;BME280;41486;52.502;13.486;2023-11-19T04:15:14;100368.41;;;4.35;100.00
55610;BME280;41486;52.502;13.486;2023-11-19T04:17:42;100359.09;;;4.31;100.00
55610;BME280;41486;52.502;13.486;2023-11-19T04:20:11;100354.81;;;4.30;100.00
55610;BME280;41486;52.502;13.486;2023-11-19T04:22:40;100353.69;;;4.34;100.00
55610;BME280;41486;52.502;13.486;2023-11-19T04:25:09;100342.72;;;4.29;100.00
55610;BME280;41486;52.502;13.486;2023-11-19T04:27:39;100332.97;;;4.32;100.00
55610;BME280;41486;52.502;13.486;2023-11-19T04:30:08;100329.69;;;4.29;100.00
55610;BME280;41486;52.502;13.486;2023-11-19T04:32:38;100328.25;;;4.39;100.00
55610;BME280;41486;52.502;13.486;2023-11-19T04:35:07;100334.63;;;4.33;100.00
55610;BME280;41486;52.502;13.486;2023-11-19T04:37:35;100330.69;;;4.26;100.00
55610;BME280;41486;52.502;13.486;2023-11-19T04:40:04;100331.53;;;4.26;100.00
55610;BME280;41486;52.502;13.486;2023-11-19T04:42:33;100337.59;;;4.27;100.00
55610;BME280;41486;52.502;13.486;2023-11-19T04:45:04;100331.38;;;4.30;100.00
55610;BME280;41486;52.502;13.486;2023-11-19T04:47:33;100325.59;;;4.24;100.00
55610;BME280;41486;52.502;13.486;2023-11-19T04:50:02;100335.56;;;4.32;100.00
55610;BME280;41486;52.502;13.486;2023-11-19T04:52:30;100329.78;;;4.27;100.00
55610;BME280;41486;52.502;13.486;2023-11-19T04:54:58;100330.09;;;4.21;100.00
55610;BME280;41486;52.502;13.486;2023-11-19T04:57:27;100324.31;;;4.16;100.00
55610;BME280;41486;52.502;13.486;2023-11-19T04:59:55;100316.81;;;4.25;100.00
55610;BME280;41486;52.502;13.486;2023-11-19T05:02:24;100312.72;;;4.21;100.00
55610;BME280;41486;52.502;13.486;2023-11-19T05:04:52;100311.69;;;4.24;100.00
55610;BME280;41486;52.502;13.486;2023-11-19T05:07:20;100295.75;;;4.14;100.00
55610;BME280;41486;52.502;13.486;2023-11-19T05:09:48;100282.47;;;4.19;100.00
55610;BME280;41486;52.502;13.486;2023-11-19T05:12:16;100276.00;;;4.10;100.00
55610;BME280;41486;52.502;13.486;2023-11-19T05:14:45;100277.63;;;4.13;100.00
55610;BME280;41486;52.502;13.486;2023-11-19T05:17:17;100262.72;;;4.15;100.00
55610;BME280;41486;52.502;13.486;2023-11-19T05:19:47;100252.06;;;4.19;100.00
55610;BME280;41486;52.502;13.486;2023-11-19T05:22:17;100257.50;;;4.15;100.00
55610;BME280;41486;52.502;13.486;2023-11-19T05:24:47;100241.06;;;4.14;100.00
55610;BME280;41486;52.502;13.486;2023-11-19T05:27:16;100236.88;;;4.12;100.00
55610;BME280;41486;52.502;13.486;2023-11-19T05:29:44;100223.09;;;4.09;100.00
55610;BME280;41486;52.502;13.486;2023-11-19T05:32:12;100244.00;;;4.08;100.00
55610;BME280;41486;52.502;13.486;2023-11-19T05:34:40;100234.31;;;4.10;100.00
55610;BME280;41486;52.502;13.486;2023-11-19T05:37:12;100229.53;;;4.18;100.00
55610;BME280;41486;52.502;13.486;2023-11-19T05:39:41;100230.44;;;4.17;100.00
55610;BME280;41486;52.502;13.486;2023-11-19T05:42:10;100216.59;;;4.17;100.00
55610;BME280;41486;52.502;13.486;2023-11-19T05:44:38;100219.06;;;4.20;100.00
55610;BME280;41486;52.502;13.486;2023-11-19T05:47:07;100229.22;;;4.24;100.00
55610;BME280;41486;52.502;13.486;2023-11-19T05:49:36;100212.03;;;4.36;100.00
55610;BME280;41486;52.502;13.486;2023-11-19T05:52:05;100208.53;;;4.21;100.00
55610;BME280;41486;52.502;13.486;2023-11-19T05:54:36;100196.47;;;4.35;100.00
55610;BME280;41486;52.502;13.486;2023-11-19T05:57:05;100185.66;;;4.26;100.00
55610;BME280;41486;52.502;13.486;2023-11-19T05:59:33;100186.16;;;4.33;100.00
55610;BME280;41486;52.502;13.486;2023-11-19T06:02:02;100186.81;;;4.37;100.00
55610;BME280;41486;52.502;13.486;2023-11-19T06:04:31;100179.81;;;4.37;100.00
55610;BME280;41486;52.502;13.486;2023-11-19T06:06:59;100167.75;;;4.36;100.00
55610;BME280;41486;52.502;13.486;2023-11-19T06:09:27;100173.34;;;4.45;100.00
55610;BME280;41486;52.502;13.486;2023-11-19T06:11:56;100160.88;;;4.35;100.00
55610;BME280;41486;52.502;13.486;2023-11-19T06:14:25;100180.03;;;4.34;100.00
55610;BME280;41486;52.502;13.486;2023-11-19T06:16:53;100179.91;;;4.36;100.00
55610;BME280;41486;52.502;13.486;2023-11-19T06:19:21;100163.09;;;4.41;100.00
55610;BME280;41486;52.502;13.486;2023-11-19T06:21:54;100158.97;;;4.37;100.00
55610;BME280;41486;52.502;13.486;2023-11-19T06:24:22;100160.50;;;4.41;100.00
55610;BME280;41486;52.502;13.486;2023-11-19T06:26:50;100152.59;;;4.43;100.00
55610;BME280;41486;52.502;13.486;2023-11-19T06:29:19;100130.72;;;4.46;100.00
55610;BME280;41486;52.502;13.486;2023-11-19T06:31:47;100139.94;;;4.51;100.00
55610;BME280;41486;52.502;13.486;2023-11-19T06:34:16;100136.94;;;4.43;100.00
55610;BME280;41486;52.502;13.486;2023-11-19T06:36:45;100138.53;;;4.46;100.00
55610;BME280;41486;52.502;13.486;2023-11-19T06:39:13;100134.06;;;4.48;100.00
55610;BME280;41486;52.502;13.486;2023-11-19T06:41:44;100128.50;;;4.54;100.00
55610;BME280;41486;52.502;13.486;2023-11-19T06:44:15;100124.97;;;4.55;100.00
55610;BME280;41486;52.502;13.486;2023-11-19T06:46:45;100126.16;;;4.49;100.00
55610;BME280;41486;52.502;13.486;2023-11-19T06:49:14;100115.78;;;4.64;100.00
55610;BME280;41486;52.502;13.486;2023-11-19T06:51:43;100102.25;;;4.57;100.00
55610;BME280;41486;52.502;13.486;2023-11-19T06:54:13;100116.22;;;4.56;100.00
55610;BME280;41486;52.502;13.486;2023-11-19T06:56:41;100120.22;;;4.62;100.00
55610;BME280;41486;52.502;13.486;2023-11-19T06:59:09;100108.78;;;4.64;100.00
55610;BME280;41486;52.502;13.486;2023-11-19T07:01:37;100110.19;;;4.55;100.00
55610;BME280;41486;52.502;13.486;2023-11-19T07:04:07;100109.97;;;4.58;100.00
55610;BME280;41486;52.502;13.486;2023-11-19T07:06:36;100116.22;;;4.56;100.00
55610;BME280;41486;52.502;13.486;2023-11-19T07:09:04;100116.38;;;4.53;100.00
55610;BME280;41486;52.502;13.486;2023-11-19T07:11:37;100119.97;;;4.66;100.00
55610;BME280;41486;52.502;13.486;2023-11-19T07:14:06;100103.19;;;4.70;100.00
55610;BME280;41486;52.502;13.486;2023-11-19T07:16:34;100106.16;;;4.79;100.00
55610;BME280;41486;52.502;13.486;2023-11-19T07:19:04;100103.78;;;4.76;100.00
55610;BME280;41486;52.502;13.486;2023-11-19T07:21:34;100117.63;;;4.76;100.00
55610;BME280;41486;52.502;13.486;2023-11-19T07:24:06;100127.69;;;4.82;100.00
55610;BME280;41486;52.502;13.486;2023-11-19T07:26:34;100127.69;;;4.82;100.00
55610;BME280;41486;52.502;13.486;2023-11-19T07:29:04;100113.28;;;4.77;100.00
55610;BME280;41486;52.502;13.486;2023-11-19T07:31:34;100113.63;;;4.85;100.00
55610;BME280;41486;52.502;13.486;2023-11-19T07:34:02;100114.47;;;4.85;100.00
55610;BME280;41486;52.502;13.486;2023-11-19T07:36:30;100102.09;;;4.74;100.00
55610;BME280;41486;52.502;13.486;2023-11-19T07:39:00;100091.81;;;4.86;100.00
55610;BME280;41486;52.502;13.486;2023-11-19T07:41:28;100103.28;;;4.83;100.00
55610;BME280;41486;52.502;13.486;2023-11-19T07:43:56;100103.00;;;4.88;100.00
55610;BME280;41486;52.502;13.486;2023-11-19T07:46:32;100104.59;;;4.90;100.00
55610;BME280;41486;52.502;13.486;2023-11-19T07:49:00;100095.94;;;4.90;100.00
55610;BME280;41486;52.502;13.486;2023-11-19T07:51:29;100105.72;;;4.86;100.00
55610;BME280;41486;52.502;13.486;2023-11-19T07:53:59;100104.50;;;4.92;100.00
55610;BME280;41486;52.502;13.486;2023-11-19T07:56:27;100111.31;;;4.95;100.00
55610;BME280;41486;52.502;13.486;2023-11-19T07:58:55;100111.31;;;4.80;100.00
55610;BME280;41486;52.502;13.486;2023-11-19T08:01:23;100096.13;;;4.87;100.00
55610;BME280;41486;52.502;13.486;2023-11-19T08:03:52;100102.81;;;5.05;100.00
55610;BME280;41486;52.502;13.486;2023-11-19T08:06:26;100104.66;;;5.03;100.00
55610;BME280;41486;52.502;13.486;2023-11-19T08:08:54;100116.78;;;5.04;100.00
55610;BME280;41486;52.502;13.486;2023-11-19T08:11:24;100100.09;;;5.07;100.00
55610;BME280;41486;52.502;13.486;2023-11-19T08:13:52;100099.28;;;5.07;100.00
55610;BME280;41486;52.502;13.486;2023-11-19T08:16:20;100103.28;;;5.12;100.00
55610;BME280;41486;52.502;13.486;2023-11-19T08:18:48;100107.06;;;5.21;100.00
55610;BME280;41486;52.502;13.486;2023-11-19T08:21:16;100107.47;;;5.15;100.00
55610;BME280;41486;52.502;13.486;2023-11-19T08:23:45;100100.72;;;5.25;100.00
55610;BME280;41486;52.502;13.486;2023-11-19T08:26:14;100106.88;;;5.10;100.00
55610;BME280;41486;52.502;13.486;2023-11-19T08:28:48;100089.56;;;5.23;100.00
55610;BME280;41486;52.502;13.486;2023-11-19T08:31:16;100091.88;;;5.28;100.00
55610;BME280;41486;52.502;13.486;2023-11-19T08:33:44;100084.47;;;5.34;100.00
55610;BME280;41486;52.502;13.486;2023-11-19T08:36:16;100071.25;;;5.37;100.00
55610;BME280;41486;52.502;13.486;2023-11-19T08:38:44;100082.22;;;5.43;100.00
55610;BME280;41486;52.502;13.486;2023-11-19T08:41:13;100082.72;;;5.62;100.00
55610;BME280;41486;52.502;13.486;2023-11-19T08:43:41;100062.97;;;5.58;100.00
55610;BME280;41486;52.502;13.486;2023-11-19T08:46:13;100057.75;;;5.58;100.00
55610;BME280;41486;52.502;13.486;2023-11-19T08:48:41;100056.97;;;5.71;100.00
55610;BME280;41486;52.502;13.486;2023-11-19T08:51:09;100045.66;;;5.70;100.00
55610;BME280;41486;52.502;13.486;2023-11-19T08:53:38;100063.94;;;5.70;100.00
55610;BME280;41486;52.502;13.486;2023-11-19T08:56:07;100057.38;;;5.77;100.00
55610;BME280;41486;52.502;13.486;2023-11-19T08:58:35;100063.03;;;5.84;100.00
55610;BME280;41486;52.502;13.486;2023-11-19T09:01:04;100076.41;;;5.79;100.00
55610;BME280;41486;52.502;13.486;2023-11-19T09:03:33;100081.94;;;5.88;100.00
55610;BME280;41486;52.502;13.486;2023-11-19T09:06:04;100074.34;;;5.97;100.00
55610;BME280;41486;52.502;13.486;2023-11-19T09:08:32;100062.06;;;5.99;100.00
55610;BME280;41486;52.502;13.486;2023-11-19T09:11:00;100053.19;;;6.02;100.00
55610;BME280;41486;52.502;13.486;2023-11-19T09:13:29;100061.56;;;6.07;100.00
55610;BME280;41486;52.502;13.486;2023-11-19T09:15:57;100063.56;;;6.17;100.00
55610;BME280;41486;52.502;13.486;2023-11-19T09:18:30;100061.63;;;6.06;100.00
55610;BME280;41486;52.502;13.486;2023-11-19T09:21:00;100074.72;;;6.19;100.00
55610;BME280;41486;52.502;13.486;2023-11-19T09:23:29;100078.59;;;6.26;100.00
55610;BME280;41486;52.502;13.486;2023-11-19T09:26:03;100066.47;;;6.38;100.00
55610;BME280;41486;52.502;13.486;2023-11-19T09:28:32;100078.59;;;6.26;100.00
55610;BME280;41486;52.502;13.486;2023-11-19T09:31:00;100080.28;;;6.40;100.00
55610;BME280;41486;52.502;13.486;2023-11-19T09:33:31;100057.38;;;6.69;100.00
55610;BME280;41486;52.502;13.486;2023-11-19T09:36:02;100064.41;;;6.56;100.00
55610;BME280;41486;52.502;13.486;2023-11-19T09:38:30;100079.16;;;6.57;100.00
55610;BME280;41486;52.502;13.486;2023-11-19T09:40:58;100071.47;;;6.92;100.00
55610;BME280;41486;52.502;13.486;2023-11-19T09:43:28;100063.66;;;7.04;100.00
55610;BME280;41486;52.502;13.486;2023-11-19T09:45:58;100059.19;;;7.06;100.00
55610;BME280;41486;52.502;13.486;2023-11-19T09:48:32;100064.63;;;7.03;100.00
55610;BME280;41486;52.502;13.486;2023-11-19T09:51:02;100061.06;;;7.41;100.00
55610;BME280;41486;52.502;13.486;2023-11-19T09:53:32;100052.13;;;7.44;100.00
55610;BME280;41486;52.502;13.486;2023-11-19T09:56:02;100055.53;;;7.57;100.00
55610;BME280;41486;52.502;13.486;2023-11-19T09:58:32;100049.16;;;7.72;100.00
55610;BME280;41486;52.502;13.486;2023-11-19T10:01:00;100044.22;;;7.92;100.00
55610;BME280;41486;52.502;13.486;2023-11-19T10:03:34;100043.88;;;8.08;100.00
55610;BME280;41486;52.502;13.486;2023-11-19T10:06:07;100044.63;;;8.21;100.00
55610;BME280;41486;52.502;13.486;2023-11-19T10:08:37;100050.03;;;8.31;100.00
55610;BME280;41486;52.502;13.486;2023-11-19T10:11:06;100047.66;;;8.40;100.00
55610;BME280;41486;52.502;13.486;2023-11-19T10:13:37;100046.97;;;8.49;100.00
55610;BME280;41486;52.502;13.486;2023-11-19T10:16:08;100040.88;;;8.60;100.00
55610;BME280;41486;52.502;13.486;2023-11-19T10:18:42;100039.09;;;8.72;100.00
55610;BME280;41486;52.502;13.486;2023-11-19T10:21:13;100024.63;;;8.77;100.00
55610;BME280;41486;52.502;13.486;2023-11-19T10:23:50;100027.41;;;8.76;100.00
55610;BME280;41486;52.502;13.486;2023-11-19T10:26:19;100030.47;;;8.92;100.00
55610;BME280;41486;52.502;13.486;2023-11-19T10:28:48;100033.47;;;8.99;100.00
55610;BME280;41486;52.502;13.486;2023-11-19T10:31:17;100024.50;;;9.02;100.00
55610;BME280;41486;52.502;13.486;2023-11-19T10:33:46;100020.91;;;9.03;100.00
55610;BME280;41486;52.502;13.486;2023-11-19T10:36:15;100013.28;;;9.11;100.00
55610;BME280;41486;52.502;13.486;2023-11-19T10:38:51;100009.31;;;9.17;100.00
55610;BME280;41486;52.502;13.486;2023-11-19T10:41:27;100000.06;;;9.34;100.00
55610;BME280;41486;52.502;13.486;2023-11-19T10:43:55;99995.56;;;9.57;100.00
55610;BME280;41486;52.502;13.486;2023-11-19T10:46:36;99996.41;;;9.78;100.00
55610;BME280;41486;52.502;13.486;2023-11-19T10:49:04;100003.00;;;9.94;100.00
55610;BME280;41486;52.502;13.486;2023-11-19T10:51:34;99990.28;;;9.99;100.00
55610;BME280;41486;52.502;13.486;2023-11-19T10:54:04;99979.00;;;10.08;100.00
55610;BME280;41486;52.502;13.486;2023-11-19T10:56:34;99970.34;;;10.18;100.00
55610;BME280;41486;52.502;13.486;2023-11-19T10:59:04;99981.03;;;10.26;100.00
55610;BME280;41486;52.502;13.486;2023-11-19T11:01:52;99977.28;;;10.29;100.00
55610;BME280;41486;52.502;13.486;2023-11-19T11:04:23;99974.13;;;10.35;100.00
55610;BME280;41486;52.502;13.486;2023-11-19T11:06:57;99989.16;;;10.44;100.00
55610;BME280;41486;52.502;13.486;2023-11-19T11:09:27;99985.31;;;10.48;100.00
55610;BME280;41486;52.502;13.486;2023-11-19T11:11:55;99977.91;;;10.42;100.00
55610;BME280;41486;52.502;13.486;2023-11-19T11:14:25;99975.59;;;10.49;100.00
55610;BME280;41486;52.502;13.486;2023-11-19T11:16:56;99972.31;;;10.56;100.00
55610;BME280;41486;52.502;13.486;2023-11-19T11:19:26;99972.41;;;11.15;100.00
55610;BME280;41486;52.502;13.486;2023-11-19T11:21:56;99974.91;;;11.07;100.00
55610;BME280;41486;52.502;13.486;2023-11-19T11:24:40;99973.47;;;12.01;100.00
55610;BME280;41486;52.502;13.486;2023-11-19T11:31:36;99961.31;;;11.41;100.00
55610;BME280;41486;52.502;13.486;2023-11-19T11:34:24;99979.06;;;11.10;100.00
55610;BME280;41486;52.502;13.486;2023-11-19T11:56:00;99971.09;;;12.08;100.00
55610;BME280;41486;52.502;13.486;2023-11-19T11:58:31;99975.50;;;12.17;100.00
55610;BME280;41486;52.502;13.486;2023-11-19T12:01:01;99971.78;;;12.10;100.00
55610;BME280;41486;52.502;13.486;2023-11-19T12:03:33;99970.16;;;11.89;100.00
55610;BME280;41486;52.502;13.486;2023-11-19T12:06:04;99965.97;;;11.87;100.00
55610;BME280;41486;52.502;13.486;2023-11-19T12:08:38;99957.41;;;11.75;100.00
55610;BME280;41486;52.502;13.486;2023-11-19T12:11:49;99962.00;;;11.73;100.00
55610;BME280;41486;52.502;13.486;2023-11-19T12:23:54;99965.88;;;11.68;100.00
55610;BME280;41486;52.502;13.486;2023-11-19T12:26:34;99960.59;;;11.68;100.00
55610;BME280;41486;52.502;13.486;2023-11-19T12:29:02;99958.81;;;11.59;100.00
55610;BME280;41486;52.502;13.486;2023-11-19T12:31:36;99965.06;;;11.58;100.00
55610;BME280;41486;52.502;13.486;2023-11-19T12:34:08;99962.13;;;11.71;100.00
55610;BME280;41486;52.502;13.486;2023-11-19T12:36:42;99967.97;;;11.65;100.00
55610;BME280;41486;52.502;13.486;2023-11-19T12:39:16;99962.97;;;11.52;100.00
55610;BME280;41486;52.502;13.486;2023-11-19T12:41:54;99958.81;;;11.49;100.00
55610;BME280;41486;52.502;13.486;2023-11-19T12:44:22;99955.22;;;11.50;100.00
55610;BME280;41486;52.502;13.486;2023-11-19T12:47:04;99951.63;;;11.51;100.00
55610;BME280;41486;52.502;13.486;2023-11-19T12:49:35;99948.44;;;11.48;100.00
55610;BME280;41486;52.502;13.486;2023-11-19T12:52:11;99955.25;;;11.41;100.00
55610;BME280;41486;52.502;13.486;2023-11-19T12:54:51;99951.75;;;11.40;100.00
55610;BME280;41486;52.502;13.486;2023-11-19T12:57:35;99961.31;;;11.41;100.00
55610;BME280;41486;52.502;13.486;2023-11-19T13:00:17;99960.91;;;11.46;100.00
55610;BME280;41486;52.502;13.486;2023-11-19T13:02:47;99961.31;;;11.51;100.00
55610;BME280;41486;52.502;13.486;2023-11-19T13:05:27;99973.25;;;11.55;100.00
55610;BME280;41486;52.502;13.486;2023-11-19T13:08:00;99964.50;;;11.45;100.00
55610;BME280;41486;52.502;13.486;2023-11-19T13:10:30;99965.38;;;11.45;100.00
55610;BME280;41486;52.502;13.486;2023-11-19T13:13:07;99969.38;;;11.49;100.00
55610;BME280;41486;52.502;13.486;2023-11-19T13:15:36;99965.34;;;11.55;100.00
55610;BME280;41486;52.502;13.486;2023-11-19T13:18:05;99953.97;;;11.64;100.00
55610;BME280;41486;52.502;13.486;2023-11-19T13:20:33;99959.09;;;11.66;100.00
55610;BME280;41486;52.502;13.486;2023-11-19T13:23:03;99960.31;;;11.81;100.00
55610;BME280;41486;52.502;13.486;2023-11-19T13:25:35;99958.22;;;11.85;100.00
55610;BME280;41486;52.502;13.486;2023-11-19T13:28:06;99957.81;;;11.80;100.00